createdAt,value
2022-11-15T00:00:31.222Z,93.62
2022-11-15T00:03:52.546Z,94.09
2022-11-15T00:07:33.174Z,93.89
2022-11-15T00:11:00.944Z,94.64
2022-11-15T00:14:22.338Z,94.74
2022-11-15T00:17:43.565Z,95.26
2022-11-15T00:21:07.637Z,95.17
2022-11-15T00:24:28.454Z,95.53
2022-11-15T00:27:49.364Z,95.38
2022-11-15T00:31:13.392Z,95.25
2022-11-15T00:34:34.291Z,95.28
2022-11-15T00:37:55.472Z,95.62
2022-11-15T00:41:16.557Z,95.83
2022-11-15T00:44:37.518Z,96.25
2022-11-15T00:47:58.900Z,95.70
2022-11-15T00:51:20.189Z,95.80
2022-11-15T00:54:41.092Z,95.78
2022-11-15T00:58:02.049Z,95.82
2022-11-15T01:01:23.427Z,95.28
2022-11-15T01:04:44.745Z,95.51
2022-11-15T01:08:06.031Z,94.02
2022-11-15T01:11:27.217Z,94.77
2022-11-15T01:14:48.123Z,93.11
2022-11-15T01:18:09.018Z,93.12
2022-11-15T01:21:29.777Z,93.70
2022-11-15T01:24:51.704Z,93.69
2022-11-15T01:28:12.868Z,93.82
2022-11-15T01:31:33.999Z,94.29
2022-11-15T01:34:55.116Z,95.27
2022-11-15T01:38:15.897Z,95.79
2022-11-15T01:41:37.216Z,96.14
2022-11-15T01:44:58.276Z,96.59
2022-11-15T01:48:19.868Z,96.46
2022-11-15T01:51:41.063Z,96.06
2022-11-15T01:55:08.628Z,95.98
2022-11-15T01:58:29.923Z,95.95
2022-11-15T02:01:51.903Z,95.35
2022-11-15T02:05:13.299Z,95.20
2022-11-15T02:08:34.361Z,94.84
2022-11-15T02:11:56.911Z,94.66
2022-11-15T02:15:18.275Z,94.57
2022-11-15T02:18:46.055Z,94.18
2022-11-15T02:22:22.483Z,94.24
2022-11-15T02:26:05.228Z,94.36
2022-11-15T02:29:42.511Z,93.71
2022-11-15T02:33:33.428Z,93.34
2022-11-15T02:37:17.458Z,92.93
2022-11-15T02:40:57.305Z,93.16
2022-11-15T02:44:27.256Z,93.66
2022-11-15T02:47:53.093Z,94.62
2022-11-15T02:51:15.745Z,94.69
2022-11-15T02:54:36.883Z,95.16
2022-11-15T02:58:25.568Z,95.27
2022-11-15T03:02:01.537Z,95.93
2022-11-15T03:05:55.690Z,96.14
2022-11-15T03:09:34.469Z,95.82
2022-11-15T03:13:08.852Z,95.48
2022-11-15T03:16:52.221Z,95.53
2022-11-15T03:20:16.779Z,95.29
2022-11-15T03:23:39.682Z,94.31
2022-11-15T03:27:02.780Z,93.92
2022-11-15T03:30:23.870Z,94.38
2022-11-15T03:33:45.189Z,93.42
2022-11-15T03:37:08.096Z,94.18
2022-11-15T03:40:40.566Z,93.39
2022-11-15T03:44:11.120Z,94.16
2022-11-15T03:47:44.619Z,93.38
2022-11-15T03:51:06.438Z,92.72
2022-11-15T03:54:27.493Z,93.40
2022-11-15T03:57:51.171Z,92.99
2022-11-15T04:01:12.596Z,94.03
2022-11-15T04:04:33.613Z,94.23
2022-11-15T04:07:54.509Z,95.03
2022-11-15T04:11:15.756Z,95.73
2022-11-15T04:14:36.454Z,95.80
2022-11-15T04:17:58.500Z,95.42
2022-11-15T04:21:37.702Z,95.67
2022-11-15T04:25:00.698Z,95.19
2022-11-15T04:28:21.963Z,94.62
2022-11-15T04:31:43.037Z,95.07
2022-11-15T04:35:04.384Z,95.17
2022-11-15T04:38:25.450Z,94.86
2022-11-15T04:41:46.216Z,94.42
2022-11-15T04:45:07.536Z,93.94
2022-11-15T04:48:28.716Z,94.08
2022-11-15T04:51:49.756Z,93.45
2022-11-15T04:55:11.935Z,93.34
2022-11-15T04:58:32.969Z,93.37
2022-11-15T05:01:54.055Z,93.57
2022-11-15T05:05:15.111Z,92.97
2022-11-15T05:08:35.999Z,93.13
2022-11-15T05:11:57.321Z,94.28
2022-11-15T05:15:18.307Z,93.86
2022-11-15T05:18:41.696Z,94.20
2022-11-15T05:22:03.065Z,94.31
2022-11-15T05:25:24.215Z,94.51
2022-11-15T05:28:45.691Z,94.51
2022-11-15T05:32:07.325Z,94.14
2022-11-15T05:35:35.459Z,94.36
2022-11-15T05:38:56.620Z,94.41
2022-11-15T05:42:17.940Z,94.50
2022-11-15T05:45:39.043Z,93.83
2022-11-15T05:49:00.494Z,93.80
2022-11-15T05:52:26.661Z,93.59
2022-11-15T05:55:48.565Z,94.73
2022-11-15T05:59:10.838Z,94.33
2022-11-15T06:02:31.977Z,93.82
2022-11-15T06:05:53.252Z,93.24
2022-11-15T06:09:14.743Z,90.92
2022-11-15T06:13:00.322Z,91.72
2022-11-15T06:16:21.576Z,92.29
2022-11-15T06:19:42.621Z,92.45
2022-11-15T06:23:05.958Z,92.08
2022-11-15T06:26:27.387Z,93.08
2022-11-15T06:29:48.578Z,93.40
2022-11-15T06:33:10.371Z,92.49
2022-11-15T06:36:31.602Z,93.05
2022-11-15T06:39:52.758Z,93.32
2022-11-15T06:43:13.885Z,92.92
2022-11-15T06:46:34.994Z,91.75
2022-11-15T06:49:56.611Z,92.51
2022-11-15T06:53:18.281Z,92.76
2022-11-15T06:56:39.017Z,92.89
2022-11-15T07:00:00.133Z,92.36
2022-11-15T07:03:21.610Z,91.68
2022-11-15T07:06:42.920Z,92.35
2022-11-15T07:10:05.216Z,92.38
2022-11-15T07:13:27.473Z,91.20
2022-11-15T07:16:48.410Z,91.26
2022-11-15T07:20:09.859Z,91.58
2022-11-15T07:23:31.465Z,91.06
2022-11-15T07:26:52.620Z,90.89
2022-11-15T07:30:16.752Z,90.21
2022-11-15T07:33:37.986Z,90.12
2022-11-15T07:36:59.064Z,89.58
2022-11-15T07:40:20.066Z,89.13
2022-11-15T07:43:41.494Z,89.50
2022-11-15T07:47:02.857Z,89.19
2022-11-15T07:50:25.364Z,89.25
2022-11-15T07:53:46.670Z,88.68
2022-11-15T07:57:10.201Z,87.59
2022-11-15T08:00:31.937Z,87.75
2022-11-15T08:03:53.075Z,87.52
2022-11-15T08:07:14.045Z,87.57
2022-11-15T08:10:40.563Z,87.36
2022-11-15T08:14:02.180Z,88.48
2022-11-15T08:17:27.051Z,86.83
2022-11-15T08:20:53.097Z,87.10
2022-11-15T08:24:14.397Z,86.20
2022-11-15T08:27:37.163Z,84.45
2022-11-15T08:30:59.068Z,84.09
2022-11-15T08:34:20.398Z,84.08
2022-11-15T08:37:41.491Z,83.93
2022-11-15T08:41:05.595Z,83.71
2022-11-15T08:44:27.216Z,84.19
2022-11-15T08:47:53.789Z,85.15
2022-11-15T08:51:16.121Z,85.79
2022-11-15T08:54:40.117Z,84.66
2022-11-15T08:58:01.071Z,84.35
2022-11-15T09:01:22.613Z,85.96
2022-11-15T09:04:44.646Z,87.69
2022-11-15T09:08:25.028Z,87.44
2022-11-15T09:11:47.741Z,85.57
2022-11-15T09:15:09.738Z,85.27
2022-11-15T09:18:34.351Z,85.67
2022-11-15T09:21:56.144Z,84.71
2022-11-15T09:25:19.881Z,85.71
2022-11-15T09:28:43.471Z,86.60
2022-11-15T09:32:11.429Z,85.63
2022-11-15T09:35:32.741Z,83.96
2022-11-15T09:38:54.448Z,83.29
2022-11-15T09:42:46.012Z,83.24
2022-11-15T09:46:38.331Z,82.60
2022-11-15T09:50:23.193Z,82.23
2022-11-15T09:54:30.375Z,81.51
2022-11-15T09:57:16.631Z,82.24
2022-11-15T10:00:49.084Z,81.93
2022-11-15T10:03:51.896Z,81.60
2022-11-15T10:07:22.331Z,82.14
2022-11-15T10:10:42.607Z,81.00
2022-11-15T10:13:57.461Z,80.40
2022-11-15T10:17:37.586Z,79.98
2022-11-15T10:20:59.190Z,82.31
2022-11-15T10:24:02.351Z,82.96
2022-11-15T10:27:14.064Z,82.34
2022-11-15T10:30:19.347Z,82.80
2022-11-15T10:33:32.794Z,83.59
2022-11-15T10:36:35.461Z,83.98
2022-11-15T10:39:38.340Z,84.47
2022-11-15T10:42:41.029Z,84.76
2022-11-15T10:45:45.639Z,85.39
2022-11-15T10:48:48.090Z,85.23
2022-11-15T10:51:59.726Z,85.28
2022-11-15T10:55:24.878Z,85.46
2022-11-15T10:58:35.561Z,85.83
2022-11-15T11:01:47.462Z,85.83
2022-11-15T11:04:51.944Z,85.46
2022-11-15T11:08:00.178Z,85.69
2022-11-15T11:11:08.785Z,86.36
2022-11-15T11:14:23.450Z,85.14
2022-11-15T11:17:41.917Z,84.01
2022-11-15T11:20:52.131Z,82.97
2022-11-15T11:24:04.596Z,83.89
2022-11-15T11:27:41.054Z,84.48
2022-11-15T11:30:57.308Z,84.51
2022-11-15T11:34:43.626Z,83.73
2022-11-15T11:38:23.797Z,83.75
2022-11-15T11:42:02.442Z,84.45
2022-11-15T11:45:11.010Z,83.02
2022-11-15T11:48:15.894Z,83.28
2022-11-15T11:51:18.870Z,83.80
2022-11-15T11:54:49.267Z,83.78
2022-11-15T11:57:57.839Z,83.83
2022-11-15T12:01:12.737Z,84.07
2022-11-15T12:04:16.937Z,83.85
2022-11-15T12:07:35.672Z,82.70
2022-11-15T12:14:27.690Z,83.08
2022-11-15T12:17:33.193Z,80.49
2022-11-15T12:20:43.827Z,80.79
2022-11-15T12:23:55.378Z,81.27
2022-11-15T12:27:33.463Z,81.46
2022-11-15T12:30:49.174Z,81.19
2022-11-15T12:33:57.401Z,81.29
2022-11-15T12:37:00.017Z,81.58
2022-11-15T12:40:19.629Z,80.90
2022-11-15T12:43:39.792Z,79.02
2022-11-15T12:46:42.330Z,78.21
2022-11-15T12:49:46.276Z,77.60
2022-11-15T12:53:23.737Z,77.63
2022-11-15T12:56:26.470Z,77.57
2022-11-15T13:00:08.265Z,78.01
2022-11-15T13:03:19.815Z,78.26
2022-11-15T13:06:42.209Z,78.82
2022-11-15T13:09:44.917Z,78.65
2022-11-15T13:12:47.556Z,78.64
2022-11-15T13:15:59.603Z,78.86
2022-11-15T13:19:06.677Z,79.17
2022-11-15T13:22:30.398Z,79.04
2022-11-15T13:25:52.046Z,78.60
2022-11-15T13:28:56.811Z,78.21
2022-11-15T13:31:59.378Z,77.83
2022-11-15T13:35:02.662Z,77.48
2022-11-15T13:38:06.578Z,77.52
2022-11-15T13:41:20.030Z,78.83
2022-11-15T13:44:27.959Z,79.40
2022-11-15T13:47:32.670Z,79.37
2022-11-15T13:50:39.355Z,80.18
2022-11-15T13:53:47.731Z,80.76
2022-11-15T13:56:57.022Z,81.30
2022-11-15T14:00:07.002Z,81.83
2022-11-15T14:03:22.023Z,82.03
2022-11-15T14:06:28.109Z,82.12
2022-11-15T14:09:33.985Z,82.11
2022-11-15T14:12:37.132Z,82.61
2022-11-15T14:15:40.792Z,81.68
2022-11-15T14:18:53.824Z,82.14
2022-11-15T14:22:25.494Z,82.13
2022-11-15T14:25:30.677Z,82.01
2022-11-15T14:28:38.355Z,82.04
2022-11-15T14:31:43.858Z,83.24
2022-11-15T14:34:47.700Z,83.64
2022-11-15T14:37:50.569Z,83.83
2022-11-15T14:40:54.796Z,84.46
2022-11-15T14:43:57.310Z,84.55
2022-11-15T14:46:59.747Z,85.50
2022-11-15T14:50:03.035Z,84.94
2022-11-15T14:53:06.339Z,85.40
2022-11-15T14:56:09.632Z,85.76
2022-11-15T14:59:12.274Z,85.79
2022-11-15T15:02:21.589Z,86.15
2022-11-15T15:05:30.947Z,87.55
2022-11-15T15:08:33.721Z,88.00
2022-11-15T15:11:36.346Z,88.28
2022-11-15T15:14:39.040Z,88.73
2022-11-15T15:17:41.714Z,89.51
2022-11-15T15:20:48.799Z,89.38
2022-11-15T15:23:54.962Z,89.41
2022-11-15T15:26:57.326Z,89.29
2022-11-15T15:29:59.733Z,88.75
2022-11-15T15:33:02.181Z,89.15
2022-11-15T15:36:04.809Z,88.70
2022-11-15T15:39:11.404Z,88.45
2022-11-15T15:42:13.997Z,89.39
2022-11-15T15:45:18.074Z,89.06
2022-11-15T15:48:20.823Z,89.28
2022-11-15T15:51:23.760Z,89.39
2022-11-15T15:54:26.460Z,88.86
2022-11-15T15:57:29.122Z,88.97
2022-11-15T16:00:39.279Z,89.48
2022-11-15T16:03:41.610Z,89.38
2022-11-15T16:06:45.481Z,89.41
2022-11-15T16:10:03.288Z,88.79
2022-11-15T16:13:05.732Z,88.68
2022-11-15T16:16:13.985Z,89.18
2022-11-15T16:19:16.448Z,89.65
2022-11-15T16:22:18.907Z,89.56
2022-11-15T16:25:21.569Z,89.88
2022-11-15T16:28:33.795Z,89.59
2022-11-15T16:31:37.549Z,90.01
2022-11-15T16:34:43.836Z,89.97
2022-11-15T16:37:48.734Z,89.71
2022-11-15T16:40:53.401Z,89.63
2022-11-15T16:43:55.779Z,90.52
2022-11-15T16:46:58.235Z,91.03
2022-11-15T16:50:00.799Z,90.37
2022-11-15T16:53:03.180Z,90.36
2022-11-15T16:56:18.015Z,90.58
2022-11-15T16:59:20.980Z,89.78
2022-11-15T17:02:23.532Z,90.23
2022-11-15T17:05:28.660Z,90.62
2022-11-15T17:08:31.530Z,90.80
2022-11-15T17:11:34.890Z,89.89
2022-11-15T17:14:37.530Z,90.25
2022-11-15T17:17:40.842Z,90.17
2022-11-15T17:20:44.398Z,90.04
2022-11-15T17:23:47.512Z,90.10
2022-11-15T17:26:50.142Z,90.55
2022-11-15T17:29:52.966Z,90.72
2022-11-15T17:32:56.858Z,90.42
2022-11-15T17:36:04.831Z,90.01
2022-11-15T17:39:07.535Z,89.52
2022-11-15T17:42:10.088Z,89.60
2022-11-15T17:45:12.770Z,89.81
2022-11-15T17:48:15.363Z,89.50
2022-11-15T17:51:18.973Z,89.62
2022-11-15T17:54:21.447Z,89.49
2022-11-15T17:57:24.189Z,89.18
2022-11-15T18:00:29.135Z,88.91
2022-11-15T18:03:35.381Z,89.28
2022-11-15T18:06:38.379Z,89.71
2022-11-15T18:09:43.999Z,90.12
2022-11-15T18:12:46.585Z,90.39
2022-11-15T18:16:02.523Z,90.32
2022-11-15T18:19:09.205Z,89.88
2022-11-15T18:22:11.854Z,89.60
2022-11-15T18:25:16.027Z,89.80
2022-11-15T18:28:18.375Z,89.98
2022-11-15T18:31:27.165Z,89.71
2022-11-15T18:34:32.622Z,90.00
2022-11-15T18:37:35.259Z,90.27
2022-11-15T18:40:38.247Z,89.68
2022-11-15T18:43:41.152Z,90.25
2022-11-15T18:46:45.176Z,89.87
2022-11-15T18:49:48.110Z,89.54
2022-11-15T18:52:50.647Z,89.80
2022-11-15T18:55:53.006Z,89.64
2022-11-15T18:58:58.050Z,90.00
2022-11-15T19:02:00.430Z,89.83
2022-11-15T19:05:03.395Z,89.55
2022-11-15T19:08:06.101Z,89.72
2022-11-15T19:11:16.901Z,89.56
2022-11-15T19:14:24.098Z,89.61
2022-11-15T19:17:27.954Z,89.29
2022-11-15T19:20:31.088Z,89.15
2022-11-15T19:23:38.828Z,89.06
2022-11-15T19:26:41.990Z,89.05
2022-11-15T19:29:44.611Z,89.15
2022-11-15T19:32:47.217Z,89.54
2022-11-15T19:35:49.686Z,88.62
2022-11-15T19:38:53.877Z,88.38
2022-11-15T19:41:56.998Z,88.75
2022-11-15T19:44:59.618Z,89.52
2022-11-15T19:48:02.078Z,88.33
2022-11-15T19:51:08.733Z,89.11
2022-11-15T19:54:11.444Z,88.66
2022-11-15T19:57:13.948Z,88.16
2022-11-15T20:00:17.473Z,89.86
2022-11-15T20:03:20.098Z,90.28
2022-11-15T20:06:28.374Z,90.23
2022-11-15T20:09:30.878Z,91.26
2022-11-15T20:12:33.286Z,90.85
2022-11-15T20:15:35.934Z,90.12
2022-11-15T20:18:38.457Z,89.94
2022-11-15T20:21:42.254Z,90.10
2022-11-15T20:24:44.690Z,89.96
2022-11-15T20:27:47.256Z,89.96
2022-11-15T20:30:56.906Z,90.37
2022-11-15T20:33:59.692Z,90.22
2022-11-15T20:37:02.407Z,90.45
2022-11-15T20:40:05.684Z,90.09
2022-11-15T20:43:13.063Z,89.86
2022-11-15T20:46:15.622Z,89.65
2022-11-15T20:49:28.417Z,90.88
2022-11-15T20:52:31.257Z,91.63
2022-11-15T20:55:34.182Z,91.72
2022-11-15T20:58:37.544Z,91.39
2022-11-15T21:01:40.388Z,92.09
2022-11-15T21:04:42.981Z,91.98
2022-11-15T21:07:45.729Z,90.80
2022-11-15T21:11:10.010Z,91.37
2022-11-15T21:14:12.452Z,91.22
2022-11-15T21:17:16.356Z,89.51
2022-11-15T21:20:19.186Z,90.36
2022-11-15T21:23:21.575Z,90.14
2022-11-15T21:26:24.007Z,90.28
2022-11-15T21:29:26.879Z,90.19
2022-11-15T21:32:29.919Z,89.62
2022-11-15T21:35:33.028Z,89.39
2022-11-15T21:38:35.852Z,89.33
2022-11-15T21:41:38.710Z,89.18
2022-11-15T21:44:41.089Z,89.16
2022-11-15T21:47:46.345Z,89.10
2022-11-15T21:50:59.030Z,89.20
2022-11-15T21:54:01.861Z,88.96
2022-11-15T21:57:04.272Z,88.83
2022-11-15T22:00:25.994Z,89.25
2022-11-15T22:03:28.866Z,89.54
2022-11-15T22:06:31.160Z,90.39
2022-11-15T22:09:33.602Z,90.03
2022-11-15T22:12:37.011Z,89.93
2022-11-15T22:15:39.435Z,90.45
2022-11-15T22:18:42.310Z,90.97
2022-11-15T22:21:44.952Z,91.30
2022-11-15T22:24:47.567Z,91.73
2022-11-15T22:27:50.123Z,91.50
2022-11-15T22:30:55.406Z,91.79
2022-11-15T22:33:57.816Z,92.21
2022-11-15T22:37:19.682Z,92.17
2022-11-15T22:40:23.683Z,92.42
2022-11-15T22:43:27.331Z,92.75
2022-11-15T22:46:30.348Z,91.60
2022-11-15T22:49:32.868Z,91.92
2022-11-15T22:52:35.680Z,91.50
2022-11-15T22:55:42.036Z,91.41
2022-11-15T22:58:44.581Z,90.72
2022-11-15T23:01:47.188Z,90.86
2022-11-15T23:04:49.838Z,90.62
2022-11-15T23:07:52.321Z,89.99
2022-11-15T23:11:14.448Z,90.14
2022-11-15T23:14:36.781Z,89.65
2022-11-15T23:17:59.174Z,89.88
2022-11-15T23:21:42.871Z,89.61
2022-11-15T23:25:05.415Z,89.05
2022-11-15T23:28:08.014Z,89.03
2022-11-15T23:31:29.508Z,89.24
2022-11-15T23:34:34.906Z,88.80
2022-11-15T23:37:37.501Z,89.30
2022-11-15T23:40:40.104Z,89.07
2022-11-15T23:43:42.628Z,89.06
2022-11-15T23:46:45.221Z,89.52
2022-11-15T23:49:47.695Z,89.39
2022-11-15T23:52:50.206Z,88.99
2022-11-15T23:56:12.980Z,88.75
2022-11-15T23:59:15.490Z,88.78
